createdAt,value
2023-03-14T00:01:25.552Z,50.25
2023-03-14T00:04:05.885Z,50.87
2023-03-14T00:07:11.925Z,50.79
2023-03-14T00:16:50.090Z,50.87
2023-03-14T00:19:35.192Z,50.59
2023-03-14T00:22:22.422Z,51.19
2023-03-14T00:25:09.228Z,51.35
2023-03-14T00:27:46.357Z,51.22
2023-03-14T00:33:47.212Z,51.37
2023-03-14T00:36:30.027Z,51.40
2023-03-14T00:39:04.350Z,51.23
2023-03-14T00:41:40.621Z,51.36
2023-03-14T00:44:22.294Z,51.58
2023-03-14T00:46:55.789Z,51.25
2023-03-14T00:49:24.643Z,50.89
2023-03-14T00:52:00.858Z,51.19
2023-03-14T00:54:52.130Z,51.12
2023-03-14T00:57:32.056Z,51.26
2023-03-14T01:00:10.967Z,51.29
2023-03-14T01:02:40.672Z,51.09
2023-03-14T01:05:24.958Z,51.07
2023-03-14T01:07:58.537Z,51.26
2023-03-14T01:10:33.024Z,50.99
2023-03-14T01:13:14.309Z,50.77
2023-03-14T01:16:15.331Z,50.91
2023-03-14T01:19:04.125Z,50.80
2023-03-14T01:21:43.241Z,50.88
2023-03-14T01:30:34.748Z,50.80
2023-03-14T01:33:24.588Z,50.43
2023-03-14T01:39:17.980Z,50.57
2023-03-14T01:42:07.420Z,50.66
2023-03-14T01:45:04.826Z,50.62
2023-03-14T01:48:09.107Z,51.00
2023-03-14T01:51:16.558Z,50.92
2023-03-14T01:54:15.453Z,50.79
2023-03-14T01:57:02.413Z,50.98
2023-03-14T01:59:44.450Z,50.74
2023-03-14T02:02:58.409Z,50.72
2023-03-14T02:05:52.985Z,50.67
2023-03-14T02:08:42.855Z,50.67
2023-03-14T02:11:37.097Z,50.54
2023-03-14T02:18:30.421Z,50.76
2023-03-14T02:24:38.136Z,50.85
2023-03-14T02:27:44.246Z,50.99
2023-03-14T02:30:37.709Z,50.72
2023-03-14T02:36:03.026Z,51.05
2023-03-14T02:38:45.701Z,51.08
2023-03-14T02:41:26.640Z,51.02
2023-03-14T02:44:15.605Z,50.97
2023-03-14T02:46:50.624Z,51.04
2023-03-14T02:49:37.544Z,51.27
2023-03-14T02:55:09.943Z,51.09
2023-03-14T02:57:42.295Z,51.30
2023-03-14T03:00:47.341Z,51.15
2023-03-14T03:04:27.702Z,51.01
2023-03-14T03:07:29.574Z,50.98
2023-03-14T03:13:39.963Z,51.00
2023-03-14T03:16:50.657Z,50.96
2023-03-14T03:29:31.143Z,51.09
2023-03-14T03:35:25.519Z,51.19
2023-03-14T03:37:57.326Z,51.18
2023-03-14T03:40:37.032Z,50.64
2023-03-14T03:43:28.570Z,50.38
2023-03-14T03:55:21.585Z,50.27
2023-03-14T03:58:41.333Z,50.12
2023-03-14T04:09:06.195Z,50.05
2023-03-14T04:15:05.669Z,50.33
2023-03-14T04:21:18.975Z,50.29
2023-03-14T04:24:11.853Z,50.63
2023-03-14T04:26:53.919Z,50.60
2023-03-14T04:40:27.139Z,51.03
2023-03-14T04:43:26.519Z,51.00
2023-03-14T04:46:00.287Z,51.00
2023-03-14T04:48:39.587Z,51.13
2023-03-14T04:54:41.814Z,50.95
2023-03-14T05:01:52.194Z,50.67
2023-03-14T05:15:49.046Z,51.21
2023-03-14T05:18:38.842Z,51.21
2023-03-14T05:21:23.036Z,51.28
2023-03-14T05:24:05.978Z,51.04
2023-03-14T05:26:39.363Z,49.93
2023-03-14T05:29:20.552Z,48.37
2023-03-14T05:31:48.972Z,46.12
2023-03-14T05:34:36.208Z,46.36
2023-03-14T05:37:30.054Z,44.47
2023-03-14T05:40:07.957Z,43.78
2023-03-14T05:42:39.875Z,42.97
2023-03-14T05:45:24.572Z,42.15
2023-03-14T05:51:20.825Z,43.14
2023-03-14T05:53:48.697Z,45.83
2023-03-14T05:56:17.633Z,51.32
2023-03-14T05:58:44.798Z,45.83
2023-03-14T06:01:12.733Z,45.24
2023-03-14T06:03:40.316Z,44.51
2023-03-14T06:06:08.228Z,47.17
2023-03-14T06:08:36.953Z,48.67
2023-03-14T06:11:09.967Z,50.75
2023-03-14T06:25:20.944Z,53.47
2023-03-14T06:36:55.286Z,51.20
2023-03-14T06:47:10.648Z,48.12
2023-03-14T06:49:45.518Z,47.76
2023-03-14T06:52:50.621Z,47.33
2023-03-14T07:04:46.910Z,46.41
2023-03-14T07:10:06.607Z,44.62
2023-03-14T07:12:36.460Z,45.18
2023-03-14T07:15:17.439Z,44.71
2023-03-14T07:17:45.655Z,44.28
2023-03-14T07:20:23.977Z,45.07
2023-03-14T07:25:53.922Z,43.32
2023-03-14T07:28:28.148Z,43.33
2023-03-14T07:31:01.334Z,43.95
2023-03-14T07:33:35.467Z,41.75
2023-03-14T07:36:08.254Z,42.73
2023-03-14T07:38:42.941Z,42.26
2023-03-14T07:41:24.186Z,41.58
2023-03-14T07:43:58.071Z,41.46
2023-03-14T07:46:32.088Z,40.56
2023-03-14T07:52:28.578Z,40.23
2023-03-14T07:55:05.357Z,40.16
2023-03-14T07:57:38.211Z,39.12
2023-03-14T08:10:00.170Z,38.64
2023-03-14T08:21:24.339Z,36.42
2023-03-14T08:32:54.254Z,32.11
2023-03-14T08:41:13.456Z,32.39
2023-03-14T08:43:42.218Z,32.10
2023-03-14T08:46:09.375Z,32.01
2023-03-14T08:48:36.687Z,31.40
2023-03-14T08:51:07.917Z,32.11
2023-03-14T08:53:35.711Z,29.79
2023-03-14T08:56:02.886Z,30.04
2023-03-14T08:58:30.511Z,30.03
2023-03-14T09:00:59.205Z,30.24
2023-03-14T09:03:27.196Z,30.57
2023-03-14T09:05:54.557Z,30.03
2023-03-14T09:08:21.987Z,30.20
2023-03-14T09:10:49.031Z,30.59
2023-03-14T09:13:16.330Z,30.44
2023-03-14T09:15:43.593Z,30.35
2023-03-14T09:18:12.224Z,30.33
2023-03-14T09:20:40.969Z,29.84
2023-03-14T09:23:08.135Z,30.57
2023-03-14T09:25:35.182Z,30.36
2023-03-14T09:28:03.939Z,30.67
2023-03-14T09:30:31.030Z,30.21
2023-03-14T09:32:58.807Z,29.84
2023-03-14T09:35:27.500Z,29.34
2023-03-14T09:37:54.780Z,29.63
2023-03-14T09:40:22.410Z,29.32
2023-03-14T09:42:52.752Z,29.34
2023-03-14T09:45:28.439Z,28.02
2023-03-14T09:47:59.748Z,28.75
2023-03-14T09:50:34.801Z,28.67
2023-03-14T09:53:05.890Z,28.72
2023-03-14T09:55:36.716Z,28.86
2023-03-14T09:58:13.373Z,29.26
2023-03-14T10:00:41.005Z,29.16
2023-03-14T10:03:27.886Z,29.09
2023-03-14T10:05:57.676Z,28.34
2023-03-14T10:08:25.349Z,28.17
2023-03-14T10:10:54.813Z,27.72
2023-03-14T10:13:25.431Z,27.75
2023-03-14T10:15:54.745Z,28.08
2023-03-14T10:18:25.705Z,27.73
2023-03-14T10:21:07.971Z,27.74
2023-03-14T10:23:36.064Z,27.34
2023-03-14T10:26:09.267Z,27.67
2023-03-14T10:28:41.549Z,27.02
2023-03-14T10:31:08.758Z,27.23
2023-03-14T10:33:38.162Z,26.91
2023-03-14T10:36:18.061Z,26.89
2023-03-14T10:38:45.695Z,27.09
2023-03-14T10:41:19.906Z,27.09
2023-03-14T10:43:51.687Z,27.87
2023-03-14T10:46:21.025Z,28.07
2023-03-14T10:48:50.704Z,28.33
2023-03-14T10:51:27.060Z,27.95
2023-03-14T10:53:58.425Z,28.12
2023-03-14T10:56:27.777Z,26.50
2023-03-14T10:58:58.361Z,26.14
2023-03-14T11:01:42.726Z,26.53
2023-03-14T11:04:18.363Z,26.49
2023-03-14T11:06:53.242Z,26.76
2023-03-14T11:09:25.838Z,25.85
2023-03-14T11:11:52.871Z,26.69
2023-03-14T11:14:32.940Z,26.26
2023-03-14T11:17:09.593Z,26.89
2023-03-14T11:19:44.906Z,26.48
2023-03-14T11:22:23.841Z,26.27
2023-03-14T11:25:05.768Z,26.16
2023-03-14T11:27:43.004Z,26.26
2023-03-14T11:30:23.410Z,26.27
2023-03-14T11:32:57.597Z,25.75
2023-03-14T11:35:31.447Z,26.32
2023-03-14T11:38:11.200Z,26.33
2023-03-14T11:40:40.185Z,25.90
2023-03-14T11:43:14.846Z,25.73
2023-03-14T11:45:44.371Z,25.67
2023-03-14T11:48:33.330Z,25.91
2023-03-14T11:51:06.173Z,25.85
2023-03-14T11:53:44.530Z,25.64
2023-03-14T11:56:17.872Z,25.39
2023-03-14T11:58:56.790Z,24.82
2023-03-14T12:01:33.059Z,25.01
2023-03-14T12:04:05.610Z,24.00
2023-03-14T12:06:41.668Z,24.96
2023-03-14T12:09:11.895Z,24.50
2023-03-14T12:11:43.160Z,23.77
2023-03-14T12:14:23.025Z,23.37
2023-03-14T12:16:57.818Z,24.42
2023-03-14T12:19:34.864Z,24.50
2023-03-14T12:22:25.836Z,24.37
2023-03-14T12:25:01.750Z,24.53
2023-03-14T12:27:48.495Z,23.52
2023-03-14T12:30:25.917Z,24.42
2023-03-14T12:33:32.969Z,24.43
2023-03-14T12:36:03.262Z,23.72
2023-03-14T12:38:44.579Z,24.42
2023-03-14T12:41:22.087Z,23.60
2023-03-14T12:43:49.523Z,23.55
2023-03-14T12:46:22.866Z,23.33
2023-03-14T12:48:54.882Z,23.36
2023-03-14T12:51:30.336Z,22.90
2023-03-14T12:54:22.604Z,23.28
2023-03-14T12:57:26.598Z,23.21
2023-03-14T12:59:57.222Z,23.50
2023-03-14T13:02:27.252Z,23.86
2023-03-14T13:05:03.671Z,23.10
2023-03-14T13:07:34.528Z,22.62
2023-03-14T13:10:19.321Z,22.62
2023-03-14T13:12:51.802Z,23.39
2023-03-14T13:15:24.754Z,22.83
2023-03-14T13:17:54.714Z,23.01
2023-03-14T13:20:28.730Z,22.90
2023-03-14T13:22:55.852Z,23.24
2023-03-14T13:25:24.039Z,23.18
2023-03-14T13:27:56.574Z,23.32
2023-03-14T13:30:26.318Z,23.30
2023-03-14T13:32:55.507Z,23.26
2023-03-14T13:35:26.338Z,23.06
2023-03-14T13:38:10.181Z,23.24
2023-03-14T13:40:38.630Z,23.71
2023-03-14T13:43:15.325Z,24.00
2023-03-14T13:45:46.698Z,23.35
2023-03-14T13:48:16.118Z,23.18
2023-03-14T13:50:55.738Z,22.79
2023-03-14T13:53:23.791Z,22.35
2023-03-14T13:55:52.161Z,22.97
2023-03-14T13:58:26.911Z,22.87
2023-03-14T14:01:00.864Z,23.08
2023-03-14T14:03:29.132Z,23.31
2023-03-14T14:05:59.621Z,23.24
2023-03-14T14:08:28.005Z,23.93
2023-03-14T14:11:01.549Z,24.18
2023-03-14T14:13:34.548Z,23.97
2023-03-14T14:16:04.711Z,23.95
2023-03-14T14:18:33.411Z,24.66
2023-03-14T14:21:01.332Z,24.64
2023-03-14T14:23:30.549Z,24.32
2023-03-14T14:25:58.926Z,24.92
2023-03-14T14:28:28.875Z,24.64
2023-03-14T14:31:07.724Z,25.13
2023-03-14T14:33:42.984Z,24.81
2023-03-14T14:36:18.406Z,24.69
2023-03-14T14:38:51.383Z,24.88
2023-03-14T14:41:20.229Z,24.82
2023-03-14T14:43:47.715Z,24.46
2023-03-14T14:46:20.197Z,25.11
2023-03-14T14:48:50.626Z,25.27
2023-03-14T14:51:26.636Z,24.93
2023-03-14T14:54:15.557Z,24.81
2023-03-14T14:56:49.236Z,24.26
2023-03-14T14:59:23.516Z,23.97
2023-03-14T15:01:57.418Z,23.44
2023-03-14T15:04:24.833Z,24.32
2023-03-14T15:06:53.877Z,23.69
2023-03-14T15:09:21.437Z,23.29
2023-03-14T15:11:49.582Z,23.38
2023-03-14T15:14:16.914Z,23.39
2023-03-14T15:16:44.658Z,23.32
2023-03-14T15:19:24.688Z,23.25
2023-03-14T15:21:53.570Z,23.30
2023-03-14T15:24:20.745Z,23.16
2023-03-14T15:26:48.181Z,23.48
2023-03-14T15:29:15.415Z,23.15
2023-03-14T15:31:44.960Z,23.33
2023-03-14T15:34:13.671Z,22.74
2023-03-14T15:36:41.328Z,23.55
2023-03-14T15:39:08.766Z,22.88
2023-03-14T15:41:36.310Z,23.06
2023-03-14T15:44:03.380Z,23.16
2023-03-14T15:46:31.399Z,23.04
2023-03-14T15:48:58.592Z,23.54
2023-03-14T15:51:27.363Z,23.09
2023-03-14T15:53:54.429Z,23.55
2023-03-14T15:56:25.091Z,23.41
2023-03-14T15:58:52.533Z,23.79
2023-03-14T16:01:20.066Z,23.95
2023-03-14T16:03:47.380Z,23.74
2023-03-14T16:06:15.376Z,24.06
2023-03-14T16:08:43.872Z,24.88
2023-03-14T16:11:11.913Z,24.63
2023-03-14T16:13:39.328Z,24.73
2023-03-14T16:16:08.318Z,24.87
2023-03-14T16:18:36.455Z,24.89
2023-03-14T16:21:06.965Z,25.20
2023-03-14T16:23:37.244Z,25.25
2023-03-14T16:26:08.032Z,25.53
2023-03-14T16:28:35.543Z,25.81
2023-03-14T16:31:04.045Z,26.94
2023-03-14T16:33:33.668Z,26.99
2023-03-14T16:36:09.063Z,29.39
2023-03-14T16:38:42.025Z,29.83
2023-03-14T16:41:13.596Z,27.72
2023-03-14T16:43:41.718Z,29.55
2023-03-14T16:46:19.006Z,31.10
2023-03-14T16:48:46.298Z,29.16
2023-03-14T16:51:14.881Z,30.35
2023-03-14T16:53:42.269Z,27.95
2023-03-14T16:56:11.620Z,28.26
2023-03-14T16:58:39.169Z,28.71
2023-03-14T17:01:11.010Z,28.93
2023-03-14T17:03:39.416Z,29.30
2023-03-14T17:06:07.594Z,29.46
2023-03-14T17:08:35.164Z,29.60
2023-03-14T17:11:02.559Z,29.67
2023-03-14T17:13:30.941Z,29.93
2023-03-14T17:15:59.923Z,30.21
2023-03-14T17:18:29.519Z,30.38
2023-03-14T17:20:57.883Z,30.54
2023-03-14T17:23:26.498Z,30.87
2023-03-14T17:25:58.066Z,31.09
2023-03-14T17:28:26.959Z,31.33
2023-03-14T17:31:04.744Z,31.32
2023-03-14T17:33:31.944Z,31.45
2023-03-14T17:35:59.646Z,31.50
2023-03-14T17:38:27.358Z,31.46
2023-03-14T17:40:54.824Z,31.74
2023-03-14T17:43:22.072Z,31.70
2023-03-14T17:45:57.954Z,32.00
2023-03-14T17:48:26.535Z,32.36
2023-03-14T17:50:55.577Z,32.28
2023-03-14T17:53:24.392Z,32.93
2023-03-14T17:55:55.665Z,32.95
2023-03-14T17:58:27.504Z,33.23
2023-03-14T18:00:58.813Z,33.15
2023-03-14T18:03:30.759Z,33.73
2023-03-14T18:06:04.373Z,34.12
2023-03-14T18:08:31.418Z,34.53
2023-03-14T18:11:04.474Z,34.70
2023-03-14T18:13:31.515Z,35.33
2023-03-14T18:15:59.126Z,35.36
2023-03-14T18:18:33.847Z,35.48
2023-03-14T18:21:03.309Z,35.80
2023-03-14T18:23:31.353Z,36.89
2023-03-14T18:25:59.807Z,37.05
2023-03-14T18:28:27.285Z,37.16
2023-03-14T18:31:02.874Z,37.37
2023-03-14T18:33:37.748Z,37.46
2023-03-14T18:36:09.907Z,37.01
2023-03-14T18:38:42.980Z,36.90
2023-03-14T18:41:20.583Z,36.85
2023-03-14T18:43:53.201Z,36.81
2023-03-14T19:20:57.229Z,36.84
2023-03-14T20:16:45.160Z,35.89
2023-03-14T20:19:54.858Z,35.74
2023-03-14T20:56:59.204Z,35.45
2023-03-14T21:08:48.023Z,36.70
2023-03-14T21:11:56.309Z,36.96
2023-03-14T21:14:27.449Z,37.12
2023-03-14T21:19:59.268Z,37.07
2023-03-14T21:22:45.200Z,37.10
2023-03-14T21:25:18.692Z,37.08
2023-03-14T21:31:44.834Z,37.44
2023-03-14T21:34:37.073Z,37.22
2023-03-14T21:41:21.489Z,37.56
2023-03-14T21:43:52.744Z,37.38
2023-03-14T21:46:24.079Z,37.82
2023-03-14T21:48:58.252Z,37.71
2023-03-14T21:51:40.936Z,37.84
2023-03-14T21:54:26.332Z,38.31
2023-03-14T21:57:21.684Z,38.34
2023-03-14T22:05:49.208Z,38.44
2023-03-14T22:08:36.941Z,39.05
2023-03-14T22:14:42.198Z,38.84
2023-03-14T22:23:17.633Z,39.30
2023-03-14T22:32:01.568Z,39.40
2023-03-14T22:43:16.862Z,39.30
2023-03-14T22:45:47.858Z,39.22
2023-03-14T22:51:29.309Z,39.04
2023-03-14T22:54:14.588Z,38.80
2023-03-14T22:56:45.756Z,38.83
2023-03-14T22:59:26.228Z,38.64
2023-03-14T23:02:02.481Z,38.74
2023-03-14T23:04:30.949Z,38.69
2023-03-14T23:09:51.712Z,38.36
2023-03-14T23:12:30.610Z,38.77
2023-03-14T23:15:13.771Z,38.78
2023-03-14T23:17:48.934Z,38.78
2023-03-14T23:21:34.076Z,38.79
2023-03-14T23:24:15.291Z,38.49
2023-03-14T23:27:15.804Z,39.08
2023-03-14T23:29:48.613Z,39.38
2023-03-14T23:32:41.628Z,40.55
2023-03-14T23:35:15.999Z,40.92
2023-03-14T23:38:03.378Z,40.91
2023-03-14T23:40:31.638Z,41.00
2023-03-14T23:43:09.241Z,41.05
2023-03-14T23:45:38.583Z,40.72
2023-03-14T23:48:42.729Z,40.70
2023-03-14T23:51:22.508Z,40.52
2023-03-14T23:53:51.858Z,40.39
2023-03-14T23:59:06.105Z,39.69
